createdAt,value
2019-04-30T00:04:07.215Z,0
2019-04-30T00:09:19.552Z,0
2019-04-30T00:14:07.723Z,0
2019-04-30T00:18:07.272Z,0
2019-04-30T00:23:07.540Z,0
2019-04-30T00:28:09.808Z,0
2019-04-30T00:33:06.922Z,0
2019-04-30T00:38:07.415Z,0
2019-04-30T00:43:10.062Z,0
2019-04-30T00:48:07.439Z,0
2019-04-30T00:52:07.860Z,0
2019-04-30T00:57:08.674Z,0
2019-04-30T01:02:08.730Z,0
2019-04-30T01:07:09.672Z,0
2019-04-30T01:12:08.564Z,0
2019-04-30T01:17:12.767Z,0
2019-04-30T01:22:09.365Z,0
2019-04-30T01:26:09.711Z,0
2019-04-30T01:31:08.822Z,0
2019-04-30T01:36:14.118Z,0
2019-04-30T01:41:09.746Z,0
2019-04-30T01:46:14.406Z,0
2019-04-30T01:51:13.263Z,0
2019-04-30T01:56:09.760Z,0
2019-04-30T02:01:09.384Z,0
2019-04-30T02:06:07.227Z,0
2019-04-30T02:10:08.631Z,0
2019-04-30T02:15:10.569Z,0
2019-04-30T02:20:09.164Z,0
2019-04-30T02:25:09.453Z,0
2019-04-30T02:30:12.421Z,0
2019-04-30T02:35:10.277Z,0
2019-04-30T02:40:09.945Z,0
2019-04-30T02:45:11.310Z,0
2019-04-30T02:49:06.988Z,0
2019-04-30T02:54:09.130Z,0
2019-04-30T02:59:10.603Z,0
2019-04-30T03:04:10.272Z,0
2019-04-30T03:09:11.304Z,1.67
2019-04-30T03:14:10.023Z,4.17
2019-04-30T03:19:10.077Z,10
2019-04-30T03:24:07.049Z,21.67
2019-04-30T03:28:09.579Z,44.17
2019-04-30T03:33:12.135Z,84.17
2019-04-30T03:38:10.515Z,149.17
2019-04-30T03:43:07.257Z,241.67
2019-04-30T03:48:10.840Z,365
2019-04-30T03:53:07.073Z,525
2019-04-30T03:58:09.859Z,707.5
2019-04-30T04:03:09.523Z,915
2019-04-30T04:07:10.589Z,1135.83
2019-04-30T04:12:12.244Z,1364.17
2019-04-30T04:17:10.204Z,1600
2019-04-30T04:22:09.963Z,1850
2019-04-30T04:27:10.338Z,2097.5
2019-04-30T04:32:10.408Z,2346.67
2019-04-30T04:37:10.692Z,2879.17
2019-04-30T04:41:10.078Z,3305.83
2019-04-30T04:46:10.018Z,3865.83
2019-04-30T04:47:13.315Z,3865.83
2019-04-30T04:56:07.066Z,5145
2019-04-30T05:01:12.591Z,5584.17
2019-04-30T05:06:11.995Z,9416.67
2019-04-30T05:11:07.053Z,6455.83
2019-04-30T05:16:09.527Z,10002.5
2019-04-30T05:20:07.065Z,11126.67
2019-04-30T05:25:09.490Z,10838.33
2019-04-30T05:30:12.690Z,10695
2019-04-30T05:35:07.166Z,10240
2019-04-30T05:40:10.041Z,11578.33
2019-04-30T05:45:10.313Z,10165
2019-04-30T05:50:09.983Z,10603.33
2019-04-30T05:55:08.910Z,7334.17
2019-04-30T05:59:09.639Z,15502.5
2019-04-30T06:04:09.390Z,13857.5
2019-04-30T06:09:34.270Z,18678.33
2019-04-30T06:14:09.316Z,19919.17
2019-04-30T06:19:09.098Z,18882.5
2019-04-30T06:24:11.418Z,18247.5
2019-04-30T06:29:09.815Z,16239.17
2019-04-30T06:33:09.218Z,17002.5
2019-04-30T06:38:09.638Z,25448.33
2019-04-30T06:43:09.496Z,21995.83
2019-04-30T06:48:09.553Z,18924.17
2019-04-30T06:53:08.810Z,20540.83
2019-04-30T06:58:16.262Z,8732.5
2019-04-30T07:03:10.385Z,27590
2019-04-30T07:08:12.525Z,29257.5
2019-04-30T07:12:09.333Z,28210
2019-04-30T07:17:07.056Z,31433.33
2019-04-30T07:22:09.438Z,32228.33
2019-04-30T07:27:09.442Z,31492.5
2019-04-30T07:32:10.356Z,32531.67
2019-04-30T07:37:24.617Z,31119.17
2019-04-30T07:42:09.898Z,35113.33
2019-04-30T07:46:09.658Z,39773.33
2019-04-30T07:51:12.369Z,45515.83
2019-04-30T07:56:40.896Z,42424.16
2019-04-30T08:01:09.722Z,38055.83
2019-04-30T08:06:11.384Z,35828.33
2019-04-30T08:11:09.091Z,36452.5
2019-04-30T08:16:09.555Z,35777.5
2019-04-30T08:20:09.051Z,37795.83
2019-04-30T08:25:09.537Z,41726.66
2019-04-30T08:30:29.484Z,38933.33
2019-04-30T08:35:09.377Z,40135
2019-04-30T08:40:09.608Z,38995
2019-04-30T08:45:10.588Z,42761.66
2019-04-30T08:49:10.715Z,42275.83
2019-04-30T08:54:09.839Z,45265.83
2019-04-30T08:59:11.089Z,45975
2019-04-30T09:04:10.806Z,50174.16
2019-04-30T09:09:11.963Z,47395.83
2019-04-30T09:14:09.158Z,48249.16
2019-04-30T09:19:06.992Z,53317.5
2019-04-30T09:23:07.310Z,44522.5
2019-04-30T09:28:09.263Z,42862.5
2019-04-30T09:33:11.327Z,44605.83
2019-04-30T09:38:09.504Z,47321.66
2019-04-30T09:43:08.937Z,54612.5
2019-04-30T09:48:09.241Z,46176.66
2019-04-30T09:53:07.057Z,47675
2019-04-30T09:57:12.254Z,54388.33
2019-04-30T10:02:09.846Z,53851.66
2019-04-30T10:07:06.993Z,54612.5
2019-04-30T10:12:09.478Z,51075
2019-04-30T10:17:07.173Z,54612.5
2019-04-30T10:22:09.543Z,52041.66
2019-04-30T10:27:14.249Z,54104.16
2019-04-30T10:31:07.699Z,54612.5
2019-04-30T10:36:06.858Z,53981.66
2019-04-30T10:41:09.496Z,50862.5
2019-04-30T10:46:06.984Z,50668.33
2019-04-30T10:51:09.381Z,51869.16
2019-04-30T10:56:10.047Z,54081.66
2019-04-30T11:01:09.920Z,52105
2019-04-30T11:05:07.294Z,54612.5
2019-04-30T11:10:09.409Z,54612.5
2019-04-30T11:15:09.131Z,54612.5
2019-04-30T11:20:10.635Z,54181.66
2019-04-30T11:25:09.692Z,54612.5
2019-04-30T11:30:25.505Z,54612.5
2019-04-30T11:34:07.008Z,47107.5
2019-04-30T11:39:09.597Z,47255.83
2019-04-30T11:44:09.868Z,54612.5
2019-04-30T11:49:07.066Z,47291.66
2019-04-30T11:54:09.258Z,48098.33
2019-04-30T11:59:09.606Z,54612.5
2019-04-30T12:04:07.173Z,54612.5
2019-04-30T12:09:09.741Z,50375.83
2019-04-30T12:13:09.513Z,50199.16
2019-04-30T12:18:06.927Z,51610
2019-04-30T12:23:13.016Z,54612.5
2019-04-30T12:28:06.914Z,54612.5
2019-04-30T12:33:09.700Z,50500.83
2019-04-30T12:38:08.418Z,53940.83
2019-04-30T12:43:07.551Z,48606.66
2019-04-30T12:47:09.995Z,46573.33
2019-04-30T12:52:09.357Z,54612.5
2019-04-30T12:57:09.207Z,49700.83
2019-04-30T13:02:08.996Z,44680.83
2019-04-30T13:07:12.880Z,46182.5
2019-04-30T13:12:11.635Z,52508.33
2019-04-30T13:17:08.072Z,54576.66
2019-04-30T13:21:09.286Z,49690
2019-04-30T13:26:10.037Z,45850
2019-04-30T13:27:06.966Z,45850
2019-04-30T13:31:09.565Z,39920
2019-04-30T13:36:09.375Z,43924.16
2019-04-30T13:41:09.518Z,45162.5
2019-04-30T13:46:08.923Z,39497.5
2019-04-30T13:51:07.064Z,40875
2019-04-30T13:56:08.662Z,41959.16
2019-04-30T14:00:09.745Z,42332.5
2019-04-30T14:05:07.506Z,47445
2019-04-30T14:10:10.792Z,49646.66
2019-04-30T14:15:09.969Z,45523.33
2019-04-30T14:20:07.602Z,54251.66
2019-04-30T14:25:07.863Z,47488.33
2019-04-30T14:30:10.344Z,40294.16
2019-04-30T14:34:07.269Z,34625
2019-04-30T14:39:17.636Z,36497.5
2019-04-30T14:44:10.269Z,34918.33
2019-04-30T14:49:17.209Z,33116.66
2019-04-30T14:54:10.186Z,29872.5
2019-04-30T14:59:07.404Z,31677.5
2019-04-30T15:04:07.057Z,13805.83
2019-04-30T15:08:10.703Z,14839.17
2019-04-30T15:13:10.074Z,14032.5
2019-04-30T15:18:09.017Z,13987.5
2019-04-30T15:23:08.292Z,13226.67
2019-04-30T15:28:09.653Z,14581.67
2019-04-30T15:33:10.305Z,16050
2019-04-30T15:37:24.148Z,17344.17
2019-04-30T15:42:07.643Z,18262.5
2019-04-30T15:47:09.373Z,26700.83
2019-04-30T15:52:11.894Z,23246.67
2019-04-30T15:57:09.182Z,20635.83
2019-04-30T16:02:09.679Z,22612.5
2019-04-30T16:07:09.084Z,19583.33
2019-04-30T16:12:07.515Z,18736.67
2019-04-30T16:17:07.936Z,22966.67
2019-04-30T16:21:10.154Z,21985.83
2019-04-30T16:26:07.472Z,17109.17
2019-04-30T16:31:07.569Z,19136.67
2019-04-30T16:36:09.696Z,13755
2019-04-30T16:41:09.545Z,9802.5
2019-04-30T16:46:06.982Z,7699.17
2019-04-30T16:51:09.724Z,8275.83
2019-04-30T16:55:07.059Z,12898.33
2019-04-30T17:00:10.472Z,6909.17
2019-04-30T17:05:11.587Z,5713.33
2019-04-30T17:10:09.581Z,9644.17
2019-04-30T17:15:10.050Z,6035
2019-04-30T17:20:07.028Z,7499.17
2019-04-30T17:25:07.271Z,5180.83
2019-04-30T17:29:09.890Z,5748.33
2019-04-30T17:34:07.067Z,4320
2019-04-30T17:39:07.569Z,3668.33
2019-04-30T17:44:09.529Z,2995.83
2019-04-30T17:49:07.271Z,2588.33
2019-04-30T17:54:07.427Z,2040.83
2019-04-30T17:59:07.675Z,1825
2019-04-30T18:03:11.812Z,1316.67
2019-04-30T18:08:07.060Z,1059.17
2019-04-30T18:13:07.804Z,838.33
2019-04-30T18:18:07.043Z,643.33
2019-04-30T18:23:07.295Z,467.5
2019-04-30T18:28:09.010Z,322.5
2019-04-30T18:32:09.933Z,209.17
2019-04-30T18:37:09.581Z,127.5
2019-04-30T18:42:10.653Z,72.5
2019-04-30T18:47:09.629Z,38.33
2019-04-30T18:52:10.029Z,19.17
2019-04-30T18:57:07.236Z,8.33
2019-04-30T19:01:06.632Z,4.17
2019-04-30T19:06:25.867Z,1.67
2019-04-30T19:11:10.092Z,0
2019-04-30T19:16:26.366Z,0
2019-04-30T19:21:09.410Z,0
2019-04-30T19:26:07.838Z,0
2019-04-30T19:31:12.210Z,0
2019-04-30T19:35:09.686Z,0
2019-04-30T19:40:09.500Z,0
2019-04-30T19:45:13.266Z,0
2019-04-30T19:50:09.687Z,0
2019-04-30T19:55:07.311Z,0
2019-04-30T20:00:10.357Z,0
2019-04-30T20:05:09.342Z,0
2019-04-30T20:09:10.066Z,0
2019-04-30T20:14:10.620Z,0
2019-04-30T20:19:08.715Z,0
2019-04-30T20:24:07.445Z,0
2019-04-30T20:29:09.943Z,0
2019-04-30T20:34:09.450Z,0
2019-04-30T20:39:08.071Z,0
2019-04-30T20:44:08.677Z,0
2019-04-30T20:48:09.598Z,0
2019-04-30T20:53:09.915Z,0
2019-04-30T20:58:06.971Z,0
2019-04-30T21:03:09.474Z,0
2019-04-30T21:08:07.223Z,0
2019-04-30T21:13:06.824Z,0
2019-04-30T21:18:09.280Z,0
2019-04-30T21:22:09.848Z,0
2019-04-30T21:27:07.162Z,0
2019-04-30T21:32:07.413Z,0
2019-04-30T21:37:07.077Z,0
2019-04-30T21:42:09.856Z,0
2019-04-30T21:47:07.052Z,0
2019-04-30T21:52:07.265Z,0
2019-04-30T21:56:08.042Z,0
2019-04-30T22:01:07.800Z,0
2019-04-30T22:06:11.047Z,0
2019-04-30T22:11:07.333Z,0
2019-04-30T22:16:07.728Z,0
2019-04-30T22:21:06.926Z,0
2019-04-30T22:26:06.993Z,0
2019-04-30T22:30:08.752Z,0
2019-04-30T22:35:07.643Z,0
2019-04-30T22:36:08.671Z,0
2019-04-30T22:40:09.669Z,0
2019-04-30T22:45:09.632Z,0
2019-04-30T22:50:07.528Z,0
2019-04-30T22:55:07.832Z,0
2019-04-30T23:00:10.830Z,0
2019-04-30T23:05:07.661Z,0
2019-04-30T23:09:07.869Z,0
2019-04-30T23:14:07.042Z,0
2019-04-30T23:19:07.659Z,0
2019-04-30T23:24:07.526Z,0
2019-04-30T23:29:06.946Z,0
2019-04-30T23:34:19.072Z,0
2019-04-30T23:39:07.507Z,0
2019-04-30T23:44:07.710Z,0
2019-04-30T23:48:07.780Z,0
2019-04-30T23:53:06.693Z,0
2019-04-30T23:58:07.259Z,0
